Flight Track Log - Related Links

Times and Time Zones

All times are in EDT time to prevent confusion due to time zone crossing. See the AWE131 flight status page for this flight to view local times or setup timezone preferences in your user account.

Time Position Orientation Groundspeed Altitude Reporting Facility
EDT Latitude Longitude Course Direction KTS MPH feet Rate Location/Type
Thu 11:29:41 PM 33.4333 -111.9833 273° West 168 193 2,000  Level Phoenix TRACON
Thu 11:30:59 PM 33.4333 -111.9000 90° East 229 264 4,400 2,348 Climbing Phoenix TRACON
Thu 11:31:59 PM 33.4167 -111.8167 103° East 271 312 7,400 2,720 Climbing Phoenix TRACON
Thu 11:32:00 PM 33.4333 -112.3341 270° West  Level FlightAware Approximate
Thu 11:32:14 PM 33.4128 -111.8081 118° Southeast 268 308 7,800  Level Albuquerque Center
Thu 11:33:00 PM 33.4359 -112.4454 273° West  Level FlightAware Approximate
Thu 11:33:15 PM 33.3681 -111.7386 128° Southeast 286 329 10,600  Level Albuquerque Center
Thu 11:34:00 PM 33.4404 -112.5566 273° West  Level FlightAware Approximate
Thu 11:34:16 PM 33.3111 -111.7925 218° Southwest 297 342 12,700  Level Albuquerque Center
Thu 11:35:00 PM 33.4448 -112.6662 273° West  Level FlightAware Approximate
Thu 11:35:18 PM 33.3267 -111.9086 279° West 353 406 14,700  Level Albuquerque Center
Thu 11:36:19 PM 33.3444 -112.0283 280° West 363 418 17,400 3,024 Climbing Albuquerque Center
Thu 11:37:21 PM 33.3644 -112.1750 279° West 372 428 20,900 2,829 Climbing Albuquerque Center
Thu 11:38:22 PM 33.3817 -112.2978 280° West 373 429 23,200 1,951 Climbing Albuquerque Center
Thu 11:39:24 PM 33.3986 -112.4203 279° West 374 430 24,900 1,659 Climbing Albuquerque Center
Thu 11:40:25 PM 33.4161 -112.5467 279° West 383 441 26,600 1,707 Climbing Albuquerque Center
Thu 11:41:27 PM 33.4317 -112.6628 279° West 386 444 28,400 1,659 Climbing Albuquerque Center
Thu 11:42:28 PM 33.4519 -112.8122 279° West 382 440 30,000 780 Climbing Albuquerque Center
Thu 11:43:30 PM 33.4753 -112.9383 283° West 386 444 30,000  Level Albuquerque Center
Thu 11:44:31 PM 33.5000 -113.0650 283° West 389 448 30,000  Level Albuquerque Center
Thu 11:45:32 PM 33.5247 -113.1925 283° West 393 452 30,000  Level Albuquerque Center
Thu 11:46:34 PM 33.5483 -113.3200 283° West 394 453 30,000  Level Albuquerque Center
Thu 11:47:35 PM 33.5725 -113.4481 283° West 395 455 30,000  Level Albuquerque Center
Thu 11:48:37 PM 33.5967 -113.5753 283° West 395 455 30,000 49 Level Albuquerque Center
Thu 11:49:38 PM 33.6244 -113.7200 283° West 395 455 30,100  Climbing Albuquerque Center
Thu 11:50:40 PM 33.6478 -113.8472 282° West 394 453 30,000 -49 Descending Albuquerque Center
Thu 11:51:41 PM 33.6711 -113.9761 282° West 394 453 30,000  Level Albuquerque Center
Thu 11:52:43 PM 33.6947 -114.1042 283° West 394 453 30,000  Level Albuquerque Center
Thu 11:53:44 PM 33.7189 -114.2414 282° West 396 456 30,000  Level Albuquerque Center
Thu 11:54:45 PM 33.7414 -114.3714 282° West 397 457 30,000  Level Albuquerque Center
Thu 11:55:11 PM 33.7514 -114.4092 288° West 397 457 30,000  Level Los Angeles Center
Thu 11:56:13 PM 33.7764 -114.5650 281° West 398 458 30,000  Level Los Angeles Center
Thu 11:57:15 PM 33.7828 -114.6694 274° West 395 455 30,000  Level Los Angeles Center
Thu 11:58:17 PM 33.7900 -114.8283 273° West 397 457 30,000  Level Los Angeles Center
Thu 11:59:19 PM 33.7992 -114.9872 274° West 399 459 30,000  Level Los Angeles Center
Fri 12:00:20 AM 33.8078 -115.1200 274° West 399 459 30,000  Level Los Angeles Center
Fri 12:01:22 AM 33.8142 -115.2517 273° West 398 458 30,000  Level Los Angeles Center
Fri 12:02:24 AM 33.8208 -115.3842 274° West 399 459 30,000  Level Los Angeles Center
Fri 12:03:26 AM 33.8275 -115.5167 274° West 399 459 30,000  Level Los Angeles Center
Fri 12:04:27 AM 33.8339 -115.6483 273° West 396 456 30,000  Level Los Angeles Center
Fri 12:05:29 AM 33.8408 -115.7803 274° West 397 457 30,000 -145 Level Los Angeles Center
Fri 12:06:31 AM 33.8486 -115.9408 273° West 402 463 29,700 -683 Descending Los Angeles Center
Fri 12:07:32 AM 33.8550 -116.0753 273° West 404 465 28,600 -1,756 Descending Los Angeles Center
Fri 12:08:34 AM 33.8606 -116.2075 273° West 399 459 26,100 -2,371 Descending Los Angeles Center
Fri 12:09:36 AM 33.8661 -116.3372 273° West 392 451 23,700 -2,274 Descending Los Angeles Center
Fri 12:10:38 AM 33.8719 -116.4656 273° West 389 448 21,400 -2,488 Descending Los Angeles Center
Fri 12:11:39 AM 33.8781 -116.5931 273° West 385 443 18,600 -2,732 Descending Los Angeles Center
Fri 12:12:41 AM 33.8853 -116.7447 273° West 383 441 15,800 -2,419 Descending Los Angeles Center
Fri 12:13:43 AM 33.8881 -116.8700 272° West 378 435 13,600 -1,756 Descending Los Angeles Center
Fri 12:14:44 AM 33.8706 -116.9778 259° West 344 396 12,200 -1,415 Descending Los Angeles Center
Fri 12:15:46 AM 33.8558 -117.0817 260° West 324 373 10,700 -1,306 Descending Los Angeles Center
Fri 12:16:48 AM 33.8406 -117.1803 259° West 309 356 9,500 -871 Descending Los Angeles Center
Fri 12:17:50 AM 33.8261 -117.2792 260° West 303 349 8,900 -488 Descending Los Angeles Center
Fri 12:18:51 AM 33.8117 -117.3786 260° West 303 349 8,500 -443 Descending Los Angeles Center
Fri 12:19:52 AM 33.7947 -117.4958 260° West 299 344 8,000 -585 Descending Los Angeles Center
Fri 12:20:54 AM 33.7814 -117.5864 260° West 283 326 7,300 -774 Descending Los Angeles Center
Fri 12:21:56 AM 33.7617 -117.6725 255° West 270 311 6,400 -1,222 Descending Los Angeles Center
Fri 12:22:42 AM 33.7500 -117.7333 257° West 255 293 5,100 -1,286 Descending Southern California TRACON
Fri 12:23:48 AM 33.7167 -117.8333 248° West 246 283 4,000 -900 Descending Southern California TRACON
Fri 12:24:42 AM 33.7000 -117.8833 248° West 224 258 3,300 -1,148 Descending Southern California TRACON
Fri 12:25:43 AM 33.7167 -117.9500 287° West 201 231 1,800 -843 Descending Southern California TRACON
Fri 12:26:43 AM 33.7167 -118.0167 270° West 172 198 1,600 -100 Descending Southern California TRACON
Fri 12:27:43 AM 33.7500 -118.0667 309° West 149 171 1,600 -236 Level Southern California TRACON
Fri 12:28:50 AM 33.7667 -118.1000 301° West 138 159 1,100 -545 Descending Southern California TRACON
Fri 12:29:44 AM 33.8000 -118.1333 320° Northwest 136 157 500 -692 Descending Southern California TRACON
Fri 12:30:08 AM 33.8061 -118.1364 337° Northwest 140 161 200 -750 Descending Los Angeles Center
Fri 12:32:00 AM 33.8167 -118.1500 292° West  Level FlightAware Approximate

Login

Don't have an account? Register now (free) for customized features, flight alerts, and more!